NFTF/TBU METAR and TAF weather

Enter ICAO airport designator
Station Type Date Time Source
NFTF METAR 2018/12/17 02:00 UTC NOAA

NFTF 170200Z 35015KT 9999 FEW010 BKN017 29/26 Q1006


Station Type Date Time Source
NFTF Decoded METAR 2018/12/17 02:00 UTC NOAA

Fua'Amotu, Tonga (NFTF) 21-14S 175-09W 41M
Dec 16, 2018 - 09:00 PM EST / 2018.12.17 0200 UTC
Wind: from the N (350 degrees) at 17 MPH (15 KT):0
Visibility: greater than 7 mile(s):0
Sky conditions: mostly cloudy
Temperature: 84 F (29 C)
Dew Point: 78 F (26 C)
Relative Humidity: 83%
Pressure (altimeter): 29.71 in. Hg (1006 hPa)
ob: NFTF 170200Z 35015KT 9999 FEW010 BKN017 29/26 Q1006
cycle: 2

Station Type Date Time Source
NFTF TAF 2018/12/16 18:19 UTC NOAA

TAF NFTF 161712Z 1618/1718 34008KT 9999 -SHRA SCT005 SCT016 BKN100 PROB30
TEMPO 1618/1624 3000 TSRA BKN006 FEW016CB


Example: see airport list